createdAt,value
2016-11-16T00:01:19.826Z,12
2016-11-16T00:02:30.261Z,12
2016-11-16T00:03:40.697Z,8
2016-11-16T00:06:16.348Z,12
2016-11-16T00:07:26.788Z,12
2016-11-16T00:08:37.224Z,12
2016-11-16T00:09:47.659Z,12
2016-11-16T00:10:58.102Z,12
2016-11-16T00:12:08.537Z,12
2016-11-16T00:13:18.980Z,12
2016-11-16T00:14:29.949Z,12
2016-11-16T00:15:40.388Z,12
2016-11-16T00:16:51.056Z,12
2016-11-16T00:18:01.495Z,12
2016-11-16T00:19:11.940Z,12
2016-11-16T00:20:22.890Z,12
2016-11-16T00:21:33.331Z,12
2016-11-16T00:22:43.875Z,12
2016-11-16T00:23:54.320Z,12
2016-11-16T00:25:04.758Z,12
2016-11-16T00:26:29.745Z,12
2016-11-16T00:27:40.379Z,12
2016-11-16T00:29:05.388Z,12
2016-11-16T00:30:15.825Z,12
2016-11-16T00:31:26.260Z,12
2016-11-16T00:32:36.701Z,12
2016-11-16T00:33:47.242Z,12
2016-11-16T00:34:57.696Z,12
2016-11-16T00:36:22.682Z,12
2016-11-16T00:37:33.116Z,12
2016-11-16T00:38:43.626Z,12
2016-11-16T00:39:54.162Z,12
2016-11-16T00:41:04.696Z,12
2016-11-16T00:42:15.236Z,12
2016-11-16T00:43:55.320Z,12
2016-11-16T00:45:20.374Z,12
2016-11-16T00:46:30.908Z,12
2016-11-16T00:47:41.437Z,12
2016-11-16T00:48:52.095Z,12
2016-11-16T00:50:02.625Z,8
2016-11-16T00:51:13.183Z,12
2016-11-16T00:52:23.714Z,12
2016-11-16T00:53:34.257Z,12
2016-11-16T00:54:59.524Z,12
2016-11-16T00:56:10.057Z,12
2016-11-16T00:57:35.141Z,12
2016-11-16T00:58:45.705Z,12
2016-11-16T00:59:56.926Z,12
2016-11-16T01:01:07.973Z,12
2016-11-16T01:02:18.499Z,12
2016-11-16T01:03:29.030Z,12
2016-11-16T01:04:39.561Z,12
2016-11-16T01:05:50.192Z,12
2016-11-16T01:07:00.724Z,12
2016-11-16T01:08:11.253Z,12
2016-11-16T01:09:21.783Z,12
2016-11-16T01:10:32.310Z,8
2016-11-16T01:11:43.067Z,8
2016-11-16T01:12:53.594Z,8
2016-11-16T01:14:04.129Z,12
2016-11-16T01:15:14.658Z,12
2016-11-16T01:16:25.183Z,12
2016-11-16T01:17:35.808Z,12
2016-11-16T01:18:46.336Z,12
2016-11-16T01:21:21.922Z,8
2016-11-16T01:22:32.550Z,8
2016-11-16T01:23:43.036Z,12
2016-11-16T01:24:53.469Z,12
2016-11-16T01:26:03.904Z,12
2016-11-16T01:27:28.880Z,12
2016-11-16T01:28:53.862Z,12
2016-11-16T01:30:04.304Z,12
2016-11-16T01:31:14.738Z,12
2016-11-16T01:32:25.172Z,12
2016-11-16T01:33:35.707Z,12
2016-11-16T01:34:46.139Z,12
2016-11-16T01:35:56.572Z,8
2016-11-16T01:37:07.006Z,12
2016-11-16T01:38:17.452Z,12
2016-11-16T01:39:27.883Z,12
2016-11-16T01:40:38.324Z,12
2016-11-16T01:41:48.759Z,12
2016-11-16T01:42:59.202Z,12
2016-11-16T01:44:10.131Z,12
2016-11-16T01:45:20.666Z,8
2016-11-16T01:46:31.104Z,8
2016-11-16T01:47:41.545Z,12
2016-11-16T01:48:51.981Z,12
2016-11-16T01:50:02.420Z,12
2016-11-16T01:51:27.404Z,4
2016-11-16T01:52:37.840Z,12
2016-11-16T01:53:48.273Z,12
2016-11-16T01:54:58.712Z,12
2016-11-16T01:56:09.246Z,12
2016-11-16T01:57:19.693Z,12
2016-11-16T01:58:30.130Z,12
2016-11-16T01:59:40.571Z,12
2016-11-16T02:01:05.557Z,12
2016-11-16T02:02:16.089Z,12
2016-11-16T02:03:26.535Z,12
2016-11-16T02:04:51.516Z,12
2016-11-16T02:06:01.957Z,12
2016-11-16T02:07:12.397Z,12
2016-11-16T02:08:22.838Z,12
2016-11-16T02:09:33.279Z,12
2016-11-16T02:10:43.716Z,8
2016-11-16T02:11:54.155Z,12
2016-11-16T02:13:04.790Z,12
2016-11-16T02:14:30.259Z,12
2016-11-16T02:15:40.698Z,12
2016-11-16T02:16:51.133Z,12
2016-11-16T02:18:01.674Z,12
2016-11-16T02:19:26.659Z,12
2016-11-16T02:20:37.095Z,12
2016-11-16T02:21:47.532Z,12
2016-11-16T02:22:57.972Z,12
2016-11-16T02:24:08.513Z,12
2016-11-16T02:25:18.953Z,12
2016-11-16T02:26:29.396Z,12
2016-11-16T02:27:39.837Z,12
2016-11-16T02:28:50.498Z,12
2016-11-16T02:30:00.939Z,12
2016-11-16T02:31:11.374Z,12
2016-11-16T02:32:21.808Z,12
2016-11-16T02:33:32.246Z,12
2016-11-16T02:34:42.786Z,12
2016-11-16T02:35:53.717Z,12
2016-11-16T02:37:04.159Z,12
2016-11-16T02:38:29.139Z,12
2016-11-16T02:39:39.774Z,12
2016-11-16T02:40:50.215Z,12
2016-11-16T02:42:00.657Z,12
2016-11-16T02:43:11.096Z,12
2016-11-16T02:44:21.537Z,12
2016-11-16T02:45:46.518Z,12
2016-11-16T02:46:56.953Z,8
2016-11-16T02:48:07.395Z,12
2016-11-16T02:49:32.416Z,12
2016-11-16T02:50:42.850Z,12
2016-11-16T02:51:53.821Z,12
2016-11-16T02:53:04.255Z,4
2016-11-16T02:54:14.727Z,16
2016-11-16T02:55:25.192Z,12
2016-11-16T02:56:35.740Z,12
2016-11-16T02:57:46.174Z,12
2016-11-16T02:58:56.608Z,12
2016-11-16T03:00:07.049Z,12
2016-11-16T03:01:17.489Z,12
2016-11-16T03:02:27.926Z,12
2016-11-16T03:03:38.371Z,12
2016-11-16T03:04:48.804Z,12
2016-11-16T03:05:59.238Z,12
2016-11-16T03:07:09.674Z,12
2016-11-16T03:08:20.113Z,12
2016-11-16T03:09:45.093Z,12
2016-11-16T03:12:20.516Z,12
2016-11-16T03:13:31.536Z,12
2016-11-16T03:14:41.973Z,12
2016-11-16T03:17:17.389Z,12
2016-11-16T03:18:27.824Z,12
2016-11-16T03:21:03.247Z,12
2016-11-16T03:22:13.684Z,12
2016-11-16T03:23:24.119Z,12
2016-11-16T03:24:34.561Z,12
2016-11-16T03:25:44.996Z,12
2016-11-16T03:26:55.432Z,12
2016-11-16T03:28:05.871Z,12
2016-11-16T03:29:16.308Z,12
2016-11-16T03:30:26.753Z,12
2016-11-16T03:31:51.734Z,12
2016-11-16T03:33:02.168Z,12
2016-11-16T03:34:12.605Z,12
2016-11-16T03:35:23.046Z,12
2016-11-16T03:36:33.478Z,12
2016-11-16T03:37:43.912Z,12
2016-11-16T03:38:54.385Z,12
2016-11-16T03:40:04.969Z,12
2016-11-16T03:41:29.950Z,12
2016-11-16T03:42:54.930Z,12
2016-11-16T03:44:05.395Z,12
2016-11-16T03:45:16.027Z,12
2016-11-16T03:46:26.461Z,12
2016-11-16T03:47:36.902Z,12
2016-11-16T03:48:48.311Z,12
2016-11-16T03:49:58.748Z,12
2016-11-16T03:51:09.381Z,12
2016-11-16T03:52:19.821Z,12
2016-11-16T03:53:30.258Z,12
2016-11-16T03:56:05.873Z,8
2016-11-16T03:57:16.319Z,12
2016-11-16T03:58:26.761Z,12
2016-11-16T03:59:37.200Z,12
2016-11-16T04:00:47.639Z,12
2016-11-16T04:01:58.076Z,12
2016-11-16T04:03:08.509Z,8
2016-11-16T04:04:18.948Z,12
2016-11-16T04:05:29.387Z,12
2016-11-16T04:06:39.823Z,12
2016-11-16T04:07:51.158Z,12
2016-11-16T04:09:01.596Z,12
2016-11-16T04:10:11.949Z,12
2016-11-16T04:11:22.264Z,12
2016-11-16T04:13:57.673Z,12
2016-11-16T04:15:08.466Z,12
2016-11-16T04:17:43.668Z,12
2016-11-16T04:19:08.654Z,12
2016-11-16T04:20:18.974Z,12
2016-11-16T04:21:43.863Z,12
2016-11-16T04:22:54.179Z,12
2016-11-16T04:24:04.671Z,12
2016-11-16T04:25:15.084Z,12
2016-11-16T04:26:25.495Z,12
2016-11-16T04:27:35.907Z,12
2016-11-16T04:28:46.330Z,12
2016-11-16T04:29:56.971Z,12
2016-11-16T04:31:21.932Z,12
2016-11-16T04:32:32.341Z,12
2016-11-16T04:33:42.753Z,12
2016-11-16T04:34:53.271Z,12
2016-11-16T04:36:04.163Z,12
2016-11-16T04:37:14.572Z,12
2016-11-16T04:38:24.981Z,12
2016-11-16T04:39:35.391Z,12
2016-11-16T04:40:46.001Z,12
2016-11-16T04:41:56.418Z,12
2016-11-16T04:43:06.831Z,12
2016-11-16T04:44:17.238Z,12
2016-11-16T04:45:27.647Z,12
2016-11-16T04:46:38.055Z,12
2016-11-16T04:47:48.469Z,8
2016-11-16T04:48:58.881Z,12
2016-11-16T04:50:09.343Z,12
2016-11-16T04:51:19.760Z,12
2016-11-16T04:52:30.174Z,12
2016-11-16T04:53:40.590Z,12
2016-11-16T04:54:51.005Z,12
2016-11-16T04:56:01.416Z,12
2016-11-16T04:57:11.828Z,12
2016-11-16T04:58:22.266Z,8
2016-11-16T04:59:32.677Z,12
2016-11-16T05:00:43.083Z,12
2016-11-16T05:01:53.495Z,12
2016-11-16T05:03:03.912Z,12
2016-11-16T05:04:14.421Z,12
2016-11-16T05:05:24.841Z,12
2016-11-16T05:06:35.248Z,12
2016-11-16T05:07:45.661Z,12
2016-11-16T05:09:10.724Z,12
2016-11-16T05:10:21.138Z,8
2016-11-16T05:11:31.579Z,12
2016-11-16T05:12:41.988Z,12
2016-11-16T05:13:52.404Z,12
2016-11-16T05:15:02.815Z,12
2016-11-16T05:16:13.226Z,12
2016-11-16T05:18:48.593Z,12
2016-11-16T05:19:59.009Z,12
2016-11-16T05:21:09.909Z,12
2016-11-16T05:22:20.316Z,12
2016-11-16T05:23:30.722Z,12
2016-11-16T05:24:41.136Z,12
2016-11-16T05:25:51.752Z,12
2016-11-16T05:27:02.165Z,12
2016-11-16T05:28:12.576Z,12
2016-11-16T05:29:23.003Z,12
2016-11-16T05:30:33.418Z,12
2016-11-16T05:31:43.957Z,12
2016-11-16T05:32:54.397Z,12
2016-11-16T05:34:19.358Z,8
2016-11-16T05:35:29.781Z,12
2016-11-16T05:36:54.744Z,12
2016-11-16T05:38:05.153Z,12
2016-11-16T05:39:15.563Z,12
2016-11-16T05:40:26.040Z,12
2016-11-16T05:41:36.948Z,12
2016-11-16T05:42:47.365Z,12
2016-11-16T05:43:57.770Z,12
2016-11-16T05:45:08.232Z,12
2016-11-16T05:46:33.191Z,12
2016-11-16T05:47:43.801Z,12
2016-11-16T05:48:54.217Z,12
2016-11-16T05:50:04.631Z,12
2016-11-16T05:51:15.042Z,12
2016-11-16T05:52:25.533Z,12
2016-11-16T05:53:36.761Z,12
2016-11-16T05:54:47.288Z,12
2016-11-16T05:55:57.817Z,12
2016-11-16T05:57:08.355Z,12
2016-11-16T05:58:18.883Z,12
2016-11-16T05:59:29.513Z,12
2016-11-16T06:00:40.043Z,12
2016-11-16T06:01:50.574Z,12
2016-11-16T06:03:01.104Z,12
2016-11-16T06:04:11.631Z,12
2016-11-16T06:05:22.357Z,12
2016-11-16T06:06:32.891Z,12
2016-11-16T06:07:43.421Z,12
2016-11-16T06:10:19.002Z,12
2016-11-16T06:11:29.529Z,12
2016-11-16T06:12:40.061Z,12
2016-11-16T06:13:50.589Z,12
2016-11-16T06:15:01.186Z,12
2016-11-16T06:16:11.814Z,12
2016-11-16T06:17:22.350Z,12
2016-11-16T06:18:32.882Z,12
2016-11-16T06:19:43.414Z,12
2016-11-16T06:20:53.944Z,12
2016-11-16T06:23:29.624Z,8
2016-11-16T06:24:40.166Z,12
2016-11-16T06:25:50.736Z,12
2016-11-16T06:27:01.369Z,12
2016-11-16T06:28:11.900Z,12
2016-11-16T06:29:22.427Z,12
2016-11-16T06:30:32.958Z,12
2016-11-16T06:33:08.539Z,12
2016-11-16T06:34:19.068Z,12
2016-11-16T06:35:29.596Z,12
2016-11-16T06:36:40.128Z,12
2016-11-16T06:37:50.654Z,12
2016-11-16T06:39:01.186Z,12
2016-11-16T06:41:36.779Z,12
2016-11-16T06:43:02.332Z,12
2016-11-16T06:44:12.863Z,12
2016-11-16T06:45:23.890Z,12
2016-11-16T06:46:34.419Z,12
2016-11-16T06:47:44.951Z,12
2016-11-16T06:48:55.482Z,12
2016-11-16T06:50:06.013Z,12
2016-11-16T06:51:16.540Z,12
2016-11-16T06:52:27.075Z,12
2016-11-16T06:53:37.604Z,12
2016-11-16T06:55:02.892Z,12
2016-11-16T06:56:13.417Z,12
2016-11-16T06:57:23.949Z,12
2016-11-16T06:58:34.481Z,12
2016-11-16T06:59:45.213Z,12
2016-11-16T07:00:55.738Z,12
2016-11-16T07:02:06.272Z,12
2016-11-16T07:03:16.802Z,12
2016-11-16T07:04:41.855Z,12
2016-11-16T07:05:52.496Z,12
2016-11-16T07:07:03.019Z,12
2016-11-16T07:08:13.551Z,12
2016-11-16T07:09:24.101Z,12
2016-11-16T07:10:34.832Z,12
2016-11-16T07:11:45.361Z,12
2016-11-16T07:12:55.889Z,8
2016-11-16T07:14:06.452Z,12
2016-11-16T07:15:17.011Z,12
2016-11-16T07:16:28.042Z,12
2016-11-16T07:17:38.580Z,12
2016-11-16T07:18:49.111Z,12
2016-11-16T07:19:59.641Z,12
2016-11-16T07:21:10.169Z,12
2016-11-16T07:22:20.907Z,12
2016-11-16T07:23:31.435Z,12
2016-11-16T07:24:41.964Z,12
2016-11-16T07:25:52.490Z,12
2016-11-16T07:27:03.018Z,12
2016-11-16T07:28:13.755Z,12
2016-11-16T07:29:24.309Z,12
2016-11-16T07:30:34.870Z,12
2016-11-16T07:31:45.400Z,12
2016-11-16T07:32:55.927Z,12
2016-11-16T07:34:06.462Z,12
2016-11-16T07:35:17.018Z,12
2016-11-16T07:36:27.549Z,8
2016-11-16T07:37:38.077Z,12
2016-11-16T07:38:48.618Z,12
2016-11-16T07:39:59.245Z,12
2016-11-16T07:41:09.773Z,12
2016-11-16T07:43:45.358Z,12
2016-11-16T07:44:55.987Z,12
2016-11-16T07:46:06.516Z,12
2016-11-16T07:47:17.045Z,12
2016-11-16T07:48:27.581Z,12
2016-11-16T07:49:38.144Z,12
2016-11-16T07:50:48.680Z,4
2016-11-16T07:51:59.211Z,12
2016-11-16T07:53:09.774Z,12
2016-11-16T07:54:20.304Z,12
2016-11-16T07:55:30.837Z,12
2016-11-16T07:56:41.561Z,12
2016-11-16T07:57:52.090Z,12
2016-11-16T07:59:02.623Z,12
2016-11-16T08:00:13.154Z,12
2016-11-16T08:01:23.713Z,12
2016-11-16T08:02:34.341Z,16
2016-11-16T08:03:44.873Z,12
2016-11-16T08:04:55.397Z,12
2016-11-16T08:06:05.845Z,16
2016-11-16T08:07:16.256Z,8
2016-11-16T08:08:26.770Z,20
2016-11-16T08:09:37.213Z,16
2016-11-16T08:10:47.656Z,20
2016-11-16T08:11:58.066Z,16
2016-11-16T08:13:08.471Z,20
2016-11-16T08:14:19.374Z,20
2016-11-16T08:15:29.785Z,20
2016-11-16T08:16:40.196Z,20
2016-11-16T08:17:50.669Z,12
2016-11-16T08:19:01.081Z,16
2016-11-16T08:20:11.692Z,12
2016-11-16T08:21:36.653Z,12
2016-11-16T08:23:01.612Z,16
2016-11-16T08:24:26.568Z,16
2016-11-16T08:25:37.181Z,20
2016-11-16T08:26:47.594Z,20
2016-11-16T08:27:58.009Z,24
2016-11-16T08:29:08.421Z,24
2016-11-16T08:30:18.832Z,24
2016-11-16T08:31:29.477Z,24
2016-11-16T08:32:39.884Z,32
2016-11-16T08:33:50.296Z,36
2016-11-16T08:35:00.718Z,44
2016-11-16T08:36:11.125Z,44
2016-11-16T08:37:21.670Z,64
2016-11-16T08:38:32.078Z,72
2016-11-16T08:39:42.569Z,80
2016-11-16T08:41:07.625Z,88
2016-11-16T08:42:18.152Z,96
2016-11-16T08:43:28.680Z,112
2016-11-16T08:44:39.207Z,120
2016-11-16T08:45:49.734Z,140
2016-11-16T08:47:00.267Z,156
2016-11-16T08:48:10.890Z,164
2016-11-16T08:49:21.417Z,172
2016-11-16T08:50:31.943Z,184
2016-11-16T08:51:42.471Z,200
2016-11-16T08:52:52.960Z,216
2016-11-16T08:54:03.497Z,236
2016-11-16T08:55:13.942Z,256
2016-11-16T08:56:24.374Z,308
2016-11-16T08:57:34.809Z,364
2016-11-16T08:58:45.248Z,380
2016-11-16T08:59:55.882Z,332
2016-11-16T09:01:06.316Z,332
2016-11-16T09:02:16.754Z,308
2016-11-16T09:03:27.191Z,312
2016-11-16T09:04:37.628Z,300
2016-11-16T09:05:48.176Z,308
2016-11-16T09:06:58.611Z,312
2016-11-16T09:08:09.045Z,320
2016-11-16T09:09:19.486Z,332
2016-11-16T09:10:29.917Z,348
2016-11-16T09:11:40.550Z,352
2016-11-16T09:12:50.935Z,356
2016-11-16T09:14:15.822Z,376
2016-11-16T09:15:26.141Z,392
2016-11-16T09:16:36.487Z,408
2016-11-16T09:17:46.802Z,416
2016-11-16T09:18:57.122Z,436
2016-11-16T09:20:07.451Z,456
2016-11-16T09:21:17.773Z,476
2016-11-16T09:22:28.293Z,500
2016-11-16T09:23:38.624Z,524
2016-11-16T09:24:48.946Z,552
2016-11-16T09:25:59.262Z,588
2016-11-16T09:27:09.580Z,592
2016-11-16T09:28:20.096Z,616
2016-11-16T09:29:44.978Z,600
2016-11-16T09:30:55.299Z,596
2016-11-16T09:32:20.182Z,572
2016-11-16T09:33:30.499Z,552
2016-11-16T09:34:40.825Z,552
2016-11-16T09:35:51.141Z,544
2016-11-16T09:37:01.458Z,544
2016-11-16T09:38:11.860Z,552
2016-11-16T09:39:36.817Z,540
2016-11-16T09:40:47.228Z,544
2016-11-16T09:41:57.639Z,548
2016-11-16T09:43:08.054Z,548
2016-11-16T09:44:18.469Z,548
2016-11-16T09:45:28.879Z,548
2016-11-16T09:46:39.797Z,556
2016-11-16T09:47:50.288Z,568
2016-11-16T09:49:00.849Z,572
2016-11-16T09:50:11.383Z,592
2016-11-16T09:51:21.912Z,588
2016-11-16T09:52:32.441Z,588
2016-11-16T09:53:42.969Z,580
2016-11-16T09:54:53.506Z,584
2016-11-16T09:56:04.531Z,592
2016-11-16T09:57:29.586Z,588
2016-11-16T09:58:40.117Z,588
2016-11-16T09:59:50.720Z,600
2016-11-16T10:01:01.257Z,612
2016-11-16T10:02:26.509Z,616
2016-11-16T10:03:37.040Z,620
2016-11-16T10:04:47.602Z,628
2016-11-16T10:05:58.144Z,636
2016-11-16T10:07:08.681Z,644
2016-11-16T10:08:19.412Z,652
2016-11-16T10:09:44.466Z,672
2016-11-16T10:10:54.993Z,692
2016-11-16T10:12:05.529Z,700
2016-11-16T10:13:16.060Z,720
2016-11-16T10:14:26.595Z,740
2016-11-16T10:15:37.122Z,756
2016-11-16T10:19:37.764Z,768
2016-11-16T10:20:48.215Z,764
2016-11-16T10:21:58.621Z,752
2016-11-16T10:23:09.031Z,712
2016-11-16T10:24:19.645Z,708
2016-11-16T10:25:30.054Z,656
2016-11-16T10:26:40.464Z,608
2016-11-16T10:27:50.880Z,588
2016-11-16T10:29:01.287Z,540
2016-11-16T10:30:11.699Z,532
2016-11-16T10:31:22.111Z,620
2016-11-16T10:32:32.527Z,528
2016-11-16T10:33:42.986Z,496
2016-11-16T10:34:53.406Z,524
2016-11-16T10:36:04.302Z,488
2016-11-16T10:37:14.713Z,476
2016-11-16T10:38:25.123Z,448
2016-11-16T10:39:35.534Z,436
2016-11-16T10:40:45.945Z,428
2016-11-16T10:42:10.911Z,432
2016-11-16T10:43:21.323Z,440
2016-11-16T10:44:31.737Z,448
2016-11-16T10:45:42.139Z,476
2016-11-16T10:48:17.708Z,520
2016-11-16T10:49:28.114Z,516
2016-11-16T10:50:38.565Z,484
2016-11-16T10:51:48.968Z,472
2016-11-16T10:52:59.576Z,464
2016-11-16T10:54:10.019Z,464
2016-11-16T10:55:20.517Z,472
2016-11-16T10:57:56.113Z,556
2016-11-16T10:59:06.643Z,552
2016-11-16T11:00:17.168Z,612
2016-11-16T11:01:27.694Z,556
2016-11-16T11:02:38.219Z,564
2016-11-16T11:03:48.745Z,564
2016-11-16T11:04:21.258Z,564
2016-11-16T11:05:31.791Z,560
2016-11-16T11:06:42.321Z,540
2016-11-16T11:07:52.862Z,528
2016-11-16T11:09:03.787Z,548
2016-11-16T11:10:14.223Z,528
2016-11-16T11:11:24.659Z,520
2016-11-16T11:12:49.641Z,544
2016-11-16T11:14:00.425Z,560
2016-11-16T11:15:10.862Z,576
2016-11-16T11:16:21.299Z,592
2016-11-16T11:17:31.737Z,620
2016-11-16T11:18:42.178Z,616
2016-11-16T11:19:52.616Z,612
2016-11-16T11:21:03.051Z,612
2016-11-16T11:22:13.486Z,616
2016-11-16T11:23:23.919Z,624
2016-11-16T11:24:34.359Z,664
2016-11-16T11:25:44.892Z,664
2016-11-16T11:26:55.322Z,612
2016-11-16T11:29:45.297Z,684
2016-11-16T11:30:55.932Z,672
2016-11-16T11:32:06.372Z,672
2016-11-16T11:33:16.809Z,668
2016-11-16T11:34:41.791Z,676
2016-11-16T11:35:52.225Z,664
2016-11-16T11:37:02.671Z,688
2016-11-16T11:38:13.109Z,692
2016-11-16T11:39:23.974Z,724
2016-11-16T11:40:34.642Z,744
2016-11-16T11:41:46.066Z,764
2016-11-16T11:42:57.614Z,800
2016-11-16T11:44:08.059Z,828
2016-11-16T11:45:18.508Z,832
2016-11-16T11:46:28.979Z,856
2016-11-16T11:47:39.458Z,892
2016-11-16T11:48:50.421Z,932
2016-11-16T11:50:00.897Z,976
2016-11-16T11:51:11.336Z,1000
2016-11-16T11:52:21.776Z,1004
2016-11-16T11:53:32.215Z,1076
2016-11-16T11:54:42.684Z,1140
2016-11-16T11:55:53.122Z,1144
2016-11-16T11:57:04.545Z,1192
2016-11-16T11:58:29.529Z,1244
2016-11-16T11:59:39.962Z,1220
2016-11-16T12:00:50.402Z,1304
2016-11-16T12:02:00.843Z,1340
2016-11-16T12:03:11.772Z,1372
2016-11-16T12:04:22.406Z,1400
2016-11-16T12:05:33.353Z,1408
2016-11-16T12:06:43.792Z,1448
2016-11-16T12:07:54.232Z,1480
2016-11-16T12:09:05.158Z,1492
2016-11-16T12:10:15.703Z,1556
2016-11-16T12:11:40.686Z,1580
2016-11-16T12:12:51.156Z,1576
2016-11-16T12:14:01.598Z,1620
2016-11-16T12:15:12.035Z,1680
2016-11-16T12:16:37.524Z,1752
2016-11-16T12:17:48.446Z,1800
2016-11-16T12:18:58.885Z,1860
2016-11-16T12:20:09.331Z,1900
2016-11-16T12:21:19.771Z,1952
2016-11-16T12:22:30.208Z,2000
2016-11-16T12:23:40.651Z,2028
2016-11-16T12:24:51.580Z,2076
2016-11-16T12:26:02.923Z,2040
2016-11-16T12:27:13.365Z,2060
2016-11-16T12:28:23.811Z,2056
2016-11-16T12:29:34.251Z,2000
2016-11-16T12:30:44.691Z,2144
2016-11-16T12:31:55.159Z,2148
2016-11-16T12:33:05.605Z,2188
2016-11-16T12:34:16.051Z,2196
2016-11-16T12:35:26.496Z,2212
2016-11-16T12:36:36.856Z,2248
2016-11-16T12:37:47.258Z,2272
2016-11-16T12:38:57.667Z,2332
2016-11-16T12:40:08.115Z,2340
2016-11-16T12:41:18.532Z,2344
2016-11-16T12:42:28.949Z,2324
2016-11-16T12:43:39.560Z,2364
2016-11-16T12:44:49.974Z,2356
2016-11-16T12:46:00.386Z,2376
2016-11-16T12:47:10.799Z,2268
2016-11-16T12:48:21.209Z,2392
2016-11-16T12:49:31.623Z,2392
2016-11-16T12:50:42.039Z,2384
2016-11-16T12:51:52.446Z,2424
2016-11-16T12:53:02.866Z,2440
2016-11-16T12:54:13.290Z,2428
2016-11-16T12:55:23.900Z,2420
2016-11-16T12:56:48.862Z,2452
2016-11-16T12:57:59.274Z,2484
2016-11-16T12:59:09.684Z,2440
2016-11-16T13:00:49.223Z,2388
2016-11-16T13:01:59.636Z,2500
2016-11-16T13:03:10.050Z,2440
2016-11-16T13:04:35.039Z,2544
2016-11-16T13:05:45.452Z,2564
2016-11-16T13:06:55.870Z,2500
2016-11-16T13:08:06.287Z,2576
2016-11-16T13:09:16.704Z,2540
2016-11-16T13:10:27.209Z,2516
2016-11-16T13:11:37.744Z,2492
2016-11-16T13:12:48.277Z,2492
2016-11-16T13:13:58.811Z,2548
2016-11-16T13:15:09.356Z,2488
2016-11-16T13:16:19.887Z,2612
2016-11-16T13:17:30.423Z,2600
2016-11-16T13:18:40.977Z,2620
2016-11-16T13:19:51.530Z,2632
2016-11-16T13:21:02.071Z,2612
2016-11-16T13:22:13.119Z,2628
2016-11-16T13:23:23.659Z,2600
2016-11-16T13:24:48.719Z,2672
2016-11-16T13:25:59.255Z,2692
2016-11-16T13:27:09.789Z,2772
2016-11-16T13:28:20.421Z,2816
2016-11-16T13:29:30.957Z,2820
2016-11-16T13:30:41.681Z,1940
2016-11-16T13:31:52.222Z,2968
2016-11-16T13:33:03.293Z,2916
2016-11-16T13:34:13.833Z,2940
2016-11-16T13:35:24.400Z,2988
2016-11-16T13:36:34.937Z,900
2016-11-16T13:37:45.475Z,2876
2016-11-16T13:38:56.021Z,2872
2016-11-16T13:40:06.764Z,3028
2016-11-16T13:41:17.801Z,3076
2016-11-16T13:42:42.870Z,1392
2016-11-16T13:43:53.408Z,776
2016-11-16T13:45:19.501Z,3060
2016-11-16T13:46:30.403Z,2984
2016-11-16T13:47:40.815Z,3000
2016-11-16T13:48:51.237Z,3008
2016-11-16T13:50:01.650Z,2968
2016-11-16T13:51:12.265Z,3004
2016-11-16T13:52:37.237Z,3040
2016-11-16T13:53:47.650Z,3008
2016-11-16T13:54:58.071Z,3040
2016-11-16T13:56:08.595Z,3044
2016-11-16T13:57:19.017Z,2984
2016-11-16T13:58:29.465Z,2860
2016-11-16T13:59:39.880Z,2972
2016-11-16T14:00:50.289Z,2096
2016-11-16T14:02:00.705Z,2844
2016-11-16T14:04:36.088Z,760
2016-11-16T14:05:46.507Z,2992
2016-11-16T14:07:11.475Z,1024
2016-11-16T14:08:21.895Z,796
2016-11-16T14:09:32.313Z,832
2016-11-16T14:10:57.284Z,3060
2016-11-16T14:12:07.702Z,952
2016-11-16T14:13:18.116Z,944
2016-11-16T14:14:43.087Z,1568
2016-11-16T14:15:53.499Z,3140
2016-11-16T14:17:04.117Z,992
2016-11-16T14:18:14.542Z,800
2016-11-16T14:19:24.955Z,700
2016-11-16T14:20:35.375Z,652
2016-11-16T14:21:45.792Z,692
2016-11-16T14:22:56.219Z,780
2016-11-16T14:24:06.633Z,808
2016-11-16T14:25:17.044Z,800
2016-11-16T14:26:27.458Z,752
2016-11-16T14:27:38.358Z,832
2016-11-16T14:28:48.972Z,1008
2016-11-16T14:29:59.385Z,1048
2016-11-16T14:31:09.804Z,3236
2016-11-16T14:32:20.218Z,3180
2016-11-16T14:33:30.632Z,3132
2016-11-16T14:34:41.048Z,3072
2016-11-16T14:35:51.461Z,1012
2016-11-16T14:37:16.425Z,776
2016-11-16T14:38:26.845Z,728
2016-11-16T14:39:37.260Z,620
2016-11-16T14:40:47.677Z,664
2016-11-16T14:41:58.088Z,852
2016-11-16T14:43:08.503Z,860
2016-11-16T14:44:18.918Z,992
2016-11-16T14:45:29.330Z,3144
2016-11-16T14:46:54.323Z,3072
2016-11-16T14:48:04.736Z,3040
2016-11-16T14:49:15.323Z,2952
2016-11-16T14:50:26.364Z,2932
2016-11-16T14:51:39.003Z,812
2016-11-16T14:52:50.000Z,860
2016-11-16T14:55:55.364Z,2964
2016-11-16T14:57:05.901Z,2784
2016-11-16T14:58:16.443Z,2716
2016-11-16T14:59:26.984Z,2692
2016-11-16T15:00:37.521Z,2508
2016-11-16T15:01:48.188Z,888
2016-11-16T15:02:58.721Z,2644
2016-11-16T15:04:09.271Z,2556
2016-11-16T15:05:19.812Z,2652
2016-11-16T15:06:30.349Z,800
2016-11-16T15:07:40.886Z,852
2016-11-16T15:08:51.421Z,720
2016-11-16T15:10:01.956Z,2696
2016-11-16T15:12:37.601Z,2536
2016-11-16T15:14:02.690Z,1896
2016-11-16T15:15:13.230Z,1584
2016-11-16T15:16:23.767Z,1252
2016-11-16T15:17:34.341Z,856
2016-11-16T15:18:44.981Z,736
2016-11-16T15:20:10.044Z,756
2016-11-16T15:21:20.583Z,1664
2016-11-16T15:22:31.118Z,804
2016-11-16T15:23:41.701Z,768
2016-11-16T15:24:52.244Z,864
2016-11-16T15:26:02.781Z,2536
2016-11-16T15:27:27.848Z,2320
2016-11-16T15:28:52.944Z,2428
2016-11-16T15:30:03.480Z,2280
2016-11-16T15:31:14.015Z,2084
2016-11-16T15:33:49.712Z,1900
2016-11-16T15:35:00.272Z,1852
2016-11-16T15:36:11.314Z,1108
2016-11-16T15:37:36.379Z,468
2016-11-16T15:38:46.919Z,536
2016-11-16T15:39:57.453Z,744
2016-11-16T15:41:08.027Z,2044
2016-11-16T15:42:18.565Z,792
2016-11-16T15:43:29.104Z,1996
2016-11-16T15:44:39.677Z,2024
2016-11-16T15:45:50.217Z,2044
2016-11-16T15:48:26.537Z,876
2016-11-16T15:49:37.133Z,836
2016-11-16T15:50:47.674Z,1432
2016-11-16T15:51:58.254Z,1856
2016-11-16T15:53:08.799Z,1856
2016-11-16T15:54:19.336Z,1808
2016-11-16T15:55:29.875Z,1680
2016-11-16T15:56:40.415Z,1644
2016-11-16T15:59:16.541Z,1548
2016-11-16T16:00:27.081Z,1588
2016-11-16T16:01:37.620Z,1540
2016-11-16T16:02:48.163Z,696
2016-11-16T16:03:58.704Z,708
2016-11-16T16:05:09.245Z,1612
2016-11-16T16:06:19.981Z,1280
2016-11-16T16:07:30.519Z,860
2016-11-16T16:08:41.092Z,1084
2016-11-16T16:09:51.631Z,1616
2016-11-16T16:11:02.172Z,1580
2016-11-16T16:12:12.712Z,1544
2016-11-16T16:13:37.783Z,1508
2016-11-16T16:14:48.324Z,1664
2016-11-16T16:15:58.862Z,960
2016-11-16T16:17:23.958Z,1268
2016-11-16T16:18:34.514Z,728
2016-11-16T16:19:45.049Z,732
2016-11-16T16:22:35.383Z,988
2016-11-16T16:23:45.926Z,1652
2016-11-16T16:24:56.470Z,1588
2016-11-16T16:26:21.536Z,1528
2016-11-16T16:27:32.170Z,1520
2016-11-16T16:28:42.717Z,1400
2016-11-16T16:29:53.251Z,1368
2016-11-16T16:31:03.787Z,1296
2016-11-16T16:32:14.355Z,640
2016-11-16T16:33:25.093Z,716
2016-11-16T16:34:35.666Z,828
2016-11-16T16:35:46.239Z,1384
2016-11-16T16:36:56.782Z,724
2016-11-16T16:38:07.318Z,676
2016-11-16T16:39:17.990Z,672
2016-11-16T16:41:53.602Z,1336
2016-11-16T16:43:04.138Z,840
2016-11-16T16:44:14.875Z,764
2016-11-16T16:45:25.411Z,824
2016-11-16T16:46:35.948Z,1480
2016-11-16T16:47:46.487Z,892
2016-11-16T16:48:57.025Z,696
2016-11-16T16:50:07.563Z,620
2016-11-16T16:51:18.098Z,1192
2016-11-16T16:53:53.698Z,696
2016-11-16T16:55:04.230Z,1352
2016-11-16T16:56:14.766Z,1260
2016-11-16T16:57:25.301Z,1252
2016-11-16T16:58:35.843Z,1260
2016-11-16T16:59:46.384Z,1176
2016-11-16T17:00:57.526Z,1184
2016-11-16T17:02:08.060Z,584
2016-11-16T17:03:18.606Z,1176
2016-11-16T17:04:29.141Z,1192
2016-11-16T17:05:39.679Z,1236
2016-11-16T17:06:50.211Z,1276
2016-11-16T17:08:15.276Z,1428
2016-11-16T17:09:25.730Z,1352
2016-11-16T17:10:36.142Z,1256
2016-11-16T17:11:46.556Z,1168
2016-11-16T17:12:56.971Z,1096
2016-11-16T17:14:07.388Z,1068
2016-11-16T17:15:17.805Z,1100
2016-11-16T17:16:28.225Z,1068
2016-11-16T17:17:38.656Z,1064
2016-11-16T17:18:49.070Z,1084